createdAt,value
2023-01-29T00:02:04.750Z,68.42
2023-01-29T00:04:31.892Z,67.80
2023-01-29T00:07:01.218Z,68.27
2023-01-29T00:09:27.989Z,68.27
2023-01-29T00:11:54.543Z,68.10
2023-01-29T00:14:21.156Z,68.44
2023-01-29T00:16:47.644Z,68.07
2023-01-29T00:19:14.178Z,68.32
2023-01-29T00:21:40.603Z,68.50
2023-01-29T00:24:07.206Z,68.23
2023-01-29T00:26:33.666Z,68.83
2023-01-29T00:29:02.939Z,69.13
2023-01-29T00:31:29.646Z,69.36
2023-01-29T00:33:56.933Z,70.14
2023-01-29T00:36:23.487Z,69.86
2023-01-29T00:39:00.462Z,69.62
2023-01-29T00:41:50.263Z,69.69
2023-01-29T00:44:36.057Z,69.86
2023-01-29T00:47:03.611Z,70.33
2023-01-29T00:49:32.942Z,70.45
2023-01-29T00:52:17.888Z,70.49
2023-01-29T00:54:44.297Z,70.63
2023-01-29T00:57:11.935Z,70.72
2023-01-29T00:59:38.311Z,70.67
2023-01-29T01:02:23.644Z,70.54
2023-01-29T01:04:50.141Z,71.03
2023-01-29T01:07:16.592Z,70.45
2023-01-29T01:10:01.669Z,71.28
2023-01-29T01:12:29.323Z,71.32
2023-01-29T01:14:58.449Z,71.68
2023-01-29T01:17:24.983Z,71.13
2023-01-29T01:19:51.408Z,71.74
2023-01-29T01:22:18.108Z,70.92
2023-01-29T01:24:44.609Z,71.47
2023-01-29T01:27:11.036Z,70.99
2023-01-29T01:29:37.444Z,70.85
2023-01-29T01:32:04.151Z,71.33
2023-01-29T01:34:30.612Z,71.10
2023-01-29T01:36:57.333Z,71.04
2023-01-29T01:39:24.647Z,71.55
2023-01-29T01:41:53.637Z,71.43
2023-01-29T01:44:58.641Z,70.99
2023-01-29T01:47:30.800Z,71.60
2023-01-29T01:50:02.996Z,71.41
2023-01-29T01:52:32.003Z,71.78
2023-01-29T01:55:00.394Z,71.30
2023-01-29T01:57:28.846Z,71.71
2023-01-29T02:00:13.756Z,71.62
2023-01-29T02:03:02.052Z,72.12
2023-01-29T02:05:49.333Z,72.41
2023-01-29T02:08:39.935Z,71.91
2023-01-29T02:11:07.194Z,72.21
2023-01-29T02:13:33.754Z,72.73
2023-01-29T02:16:00.133Z,72.20
2023-01-29T02:18:26.653Z,72.20
2023-01-29T02:21:14.712Z,72.35
2023-01-29T02:24:05.475Z,71.81
2023-01-29T02:26:37.932Z,72.12
2023-01-29T02:29:30.457Z,72.13
2023-01-29T02:32:12.585Z,71.58
2023-01-29T02:35:29.914Z,71.92
2023-01-29T02:38:11.519Z,72.41
2023-01-29T02:40:41.115Z,72.68
2023-01-29T02:43:29.033Z,72.59
2023-01-29T02:46:07.307Z,72.17
2023-01-29T02:48:40.827Z,71.83
2023-01-29T02:51:35.019Z,72.11
2023-01-29T02:54:13.585Z,71.78
2023-01-29T02:56:56.233Z,72.15
2023-01-29T02:59:37.072Z,72.24
2023-01-29T03:02:10.312Z,72.47
2023-01-29T03:04:45.619Z,72.01
2023-01-29T03:07:42.414Z,71.65
2023-01-29T03:10:24.580Z,72.21
2023-01-29T03:12:59.591Z,71.99
2023-01-29T03:15:38.536Z,72.37
2023-01-29T03:18:18.318Z,71.79
2023-01-29T03:20:50.084Z,71.95
2023-01-29T03:23:37.887Z,71.99
2023-01-29T03:26:24.373Z,72.00
2023-01-29T03:29:10.719Z,71.21
2023-01-29T03:31:56.092Z,70.79
2023-01-29T03:34:36.154Z,71.38
2023-01-29T03:37:09.158Z,71.52
2023-01-29T03:39:36.921Z,70.70
2023-01-29T03:42:17.604Z,71.08
2023-01-29T03:44:51.988Z,70.84
2023-01-29T03:47:27.155Z,71.38
2023-01-29T03:49:57.499Z,71.05
2023-01-29T03:52:34.823Z,71.42
2023-01-29T03:55:11.138Z,71.42
2023-01-29T03:57:58.559Z,71.45
2023-01-29T04:00:55.829Z,71.37
2023-01-29T04:03:34.173Z,71.65
2023-01-29T04:06:09.788Z,71.70
2023-01-29T04:08:53.856Z,71.81
2023-01-29T04:11:23.129Z,72.19
2023-01-29T04:13:51.570Z,71.84
2023-01-29T04:16:26.983Z,71.46
2023-01-29T04:18:54.699Z,71.82
2023-01-29T04:21:21.569Z,71.90
2023-01-29T04:23:48.021Z,71.62
2023-01-29T04:26:48.621Z,72.11
2023-01-29T04:29:25.234Z,71.91
2023-01-29T04:32:18.773Z,71.52
2023-01-29T04:35:07.761Z,72.02
2023-01-29T04:37:44.561Z,71.87
2023-01-29T04:40:33.522Z,71.26
2023-01-29T04:43:06.502Z,71.56
2023-01-29T04:45:44.697Z,71.84
2023-01-29T04:48:29.981Z,72.87
2023-01-29T04:51:08.164Z,72.79
2023-01-29T04:54:13.167Z,72.24
2023-01-29T04:56:56.934Z,72.55
2023-01-29T04:59:33.869Z,73.15
2023-01-29T05:02:02.436Z,72.56
2023-01-29T05:04:32.939Z,72.24
2023-01-29T05:07:04.720Z,73.35
2023-01-29T05:09:32.862Z,73.55
2023-01-29T05:12:01.316Z,73.72
2023-01-29T05:14:30.521Z,73.63
2023-01-29T05:16:58.911Z,73.99
2023-01-29T05:19:26.169Z,74.29
2023-01-29T05:21:52.906Z,74.60
2023-01-29T05:24:22.416Z,74.32
2023-01-29T05:27:09.387Z,74.77
2023-01-29T05:29:35.882Z,73.58
2023-01-29T05:32:03.536Z,74.00
2023-01-29T05:34:30.410Z,74.18
2023-01-29T05:36:56.816Z,74.10
2023-01-29T05:39:23.332Z,74.61
2023-01-29T05:41:49.764Z,74.79
2023-01-29T05:44:16.215Z,75.01
2023-01-29T05:46:43.875Z,74.29
2023-01-29T05:49:10.673Z,74.36
2023-01-29T05:51:37.063Z,74.10
2023-01-29T05:54:03.730Z,74.21
2023-01-29T05:56:30.170Z,74.32
2023-01-29T05:58:56.875Z,74.23
2023-01-29T06:01:25.460Z,74.06
2023-01-29T06:03:51.977Z,73.91
2023-01-29T06:06:18.458Z,73.77
2023-01-29T06:08:44.869Z,73.88
2023-01-29T06:11:12.750Z,73.79
2023-01-29T06:13:39.774Z,73.52
2023-01-29T06:16:10.966Z,74.50
2023-01-29T06:18:38.371Z,74.28
2023-01-29T06:21:07.080Z,74.78
2023-01-29T06:23:33.968Z,74.55
2023-01-29T06:26:01.932Z,74.20
2023-01-29T06:28:28.928Z,73.97
2023-01-29T06:31:21.041Z,74.08
2023-01-29T06:33:49.213Z,74.66
2023-01-29T06:36:15.855Z,73.93
2023-01-29T06:38:42.285Z,73.70
2023-01-29T06:41:11.052Z,73.37
2023-01-29T06:43:38.601Z,73.76
2023-01-29T06:46:07.975Z,73.32
2023-01-29T06:48:34.318Z,72.78
2023-01-29T06:51:05.294Z,72.09
2023-01-29T06:53:34.030Z,72.73
2023-01-29T06:56:00.880Z,72.62
2023-01-29T06:58:27.310Z,73.13
2023-01-29T07:00:53.845Z,72.76
2023-01-29T07:03:20.325Z,72.44
2023-01-29T07:05:53.320Z,72.61
2023-01-29T07:08:22.632Z,73.01
2023-01-29T07:10:50.360Z,72.32
2023-01-29T07:13:16.980Z,72.53
2023-01-29T07:15:44.496Z,72.41
2023-01-29T07:18:13.535Z,72.49
2023-01-29T07:20:41.623Z,72.52
2023-01-29T07:23:14.595Z,72.29
2023-01-29T07:25:41.568Z,72.29
2023-01-29T07:28:08.225Z,72.67
2023-01-29T07:30:35.513Z,72.30
2023-01-29T07:33:08.094Z,72.28
2023-01-29T07:35:43.100Z,72.38
2023-01-29T07:38:10.834Z,72.41
2023-01-29T07:40:37.398Z,72.73
2023-01-29T07:43:07.255Z,73.13
2023-01-29T07:45:37.470Z,73.17
2023-01-29T07:48:05.329Z,72.72
2023-01-29T07:50:33.534Z,72.16
2023-01-29T07:53:00.173Z,72.51
2023-01-29T07:55:27.303Z,72.91
2023-01-29T07:58:01.914Z,72.42
2023-01-29T08:00:29.654Z,72.04
2023-01-29T08:03:05.880Z,72.25
2023-01-29T08:05:32.685Z,72.63
2023-01-29T08:08:06.482Z,72.89
2023-01-29T08:10:35.021Z,72.39
2023-01-29T08:13:03.172Z,72.48
2023-01-29T08:15:30.056Z,71.51
2023-01-29T08:17:58.291Z,72.23
2023-01-29T08:20:25.866Z,72.03
2023-01-29T08:23:03.000Z,71.82
2023-01-29T08:25:29.960Z,71.84
2023-01-29T08:27:57.964Z,72.46
2023-01-29T08:30:26.732Z,72.69
2023-01-29T08:32:53.331Z,72.72
2023-01-29T08:35:20.405Z,72.55
2023-01-29T08:38:01.599Z,72.66
2023-01-29T08:40:32.045Z,72.89
2023-01-29T08:43:01.997Z,72.51
2023-01-29T08:45:30.099Z,72.64
2023-01-29T08:47:56.567Z,72.43
2023-01-29T08:50:23.384Z,72.67
2023-01-29T08:52:49.784Z,72.67
2023-01-29T08:55:16.581Z,72.73
2023-01-29T08:57:43.153Z,73.04
2023-01-29T09:00:10.635Z,73.02
2023-01-29T09:02:37.796Z,72.17
2023-01-29T09:05:05.391Z,72.72
2023-01-29T09:07:31.959Z,72.52
2023-01-29T09:09:58.426Z,73.13
2023-01-29T09:12:24.879Z,72.88
2023-01-29T09:14:51.311Z,73.13
2023-01-29T09:17:17.925Z,73.28
2023-01-29T09:19:44.326Z,72.92
2023-01-29T09:22:12.022Z,72.05
2023-01-29T09:24:38.840Z,72.77
2023-01-29T09:27:06.178Z,73.05
2023-01-29T09:29:35.630Z,72.51
2023-01-29T09:32:03.763Z,72.73
2023-01-29T09:34:30.193Z,72.92
2023-01-29T09:36:56.669Z,72.33
2023-01-29T09:39:23.348Z,72.06
2023-01-29T09:42:08.350Z,71.56
2023-01-29T09:45:06.040Z,71.75
2023-01-29T09:47:35.746Z,72.02
2023-01-29T09:50:19.227Z,72.25
2023-01-29T09:52:57.500Z,71.96
2023-01-29T09:55:32.509Z,71.81
2023-01-29T09:58:37.583Z,71.46
2023-01-29T10:01:15.534Z,70.89
2023-01-29T10:04:03.463Z,71.30
2023-01-29T10:06:54.845Z,71.43
2023-01-29T10:09:46.405Z,71.16
2023-01-29T10:12:27.189Z,70.92
2023-01-29T10:15:17.427Z,71.28
2023-01-29T10:18:12.603Z,70.91
2023-01-29T10:21:16.323Z,71.07
2023-01-29T10:23:50.189Z,70.10
2023-01-29T10:26:18.537Z,70.43
2023-01-29T10:28:50.133Z,70.22
2023-01-29T10:31:32.810Z,70.02
2023-01-29T10:34:29.789Z,70.21
2023-01-29T10:36:59.034Z,69.83
2023-01-29T10:39:26.919Z,70.21
2023-01-29T10:42:03.461Z,70.01
2023-01-29T10:44:36.485Z,69.82
2023-01-29T10:47:42.897Z,69.97
2023-01-29T10:50:12.328Z,70.03
2023-01-29T10:52:41.687Z,69.75
2023-01-29T10:55:20.389Z,69.34
2023-01-29T10:58:05.657Z,69.84
2023-01-29T11:00:40.228Z,68.68
2023-01-29T11:03:26.250Z,68.87
2023-01-29T11:06:17.868Z,69.38
2023-01-29T11:08:56.249Z,69.37
2023-01-29T11:11:33.225Z,68.44
2023-01-29T11:14:07.031Z,68.80
2023-01-29T11:16:44.363Z,69.14
2023-01-29T11:19:11.243Z,68.32
2023-01-29T11:21:58.049Z,68.17
2023-01-29T11:24:25.439Z,67.33
2023-01-29T11:26:55.443Z,66.82
2023-01-29T11:29:37.027Z,66.89
2023-01-29T11:32:23.712Z,66.59
2023-01-29T11:35:04.672Z,66.32
2023-01-29T11:37:39.477Z,66.82
2023-01-29T11:40:36.793Z,67.15
2023-01-29T11:43:26.160Z,67.15
2023-01-29T11:46:05.370Z,66.13
2023-01-29T11:48:59.071Z,65.93
2023-01-29T11:51:33.134Z,65.69
2023-01-29T11:54:05.919Z,65.55
2023-01-29T11:56:42.904Z,65.44
2023-01-29T11:59:34.318Z,65.25
2023-01-29T12:02:26.713Z,64.54
2023-01-29T12:04:56.796Z,64.82
2023-01-29T12:07:23.680Z,64.57
2023-01-29T12:10:00.234Z,64.17
2023-01-29T12:12:30.377Z,64.60
2023-01-29T12:15:08.884Z,63.29
2023-01-29T12:17:39.155Z,62.78
2023-01-29T12:20:13.686Z,62.82
2023-01-29T12:22:48.790Z,63.36
2023-01-29T12:25:31.530Z,62.52
2023-01-29T12:28:08.498Z,62.17
2023-01-29T12:31:12.859Z,62.05
2023-01-29T12:34:00.542Z,61.72
2023-01-29T12:36:31.925Z,61.45
2023-01-29T12:38:59.369Z,61.02
2023-01-29T12:41:53.985Z,60.00
2023-01-29T12:44:42.321Z,59.99
2023-01-29T12:47:27.837Z,60.28
2023-01-29T12:50:01.928Z,59.57
2023-01-29T12:52:50.914Z,60.05
2023-01-29T12:55:24.269Z,59.96
2023-01-29T12:58:00.035Z,60.80
2023-01-29T13:00:33.842Z,60.91
2023-01-29T13:03:18.636Z,62.11
2023-01-29T13:05:53.552Z,62.46
2023-01-29T13:08:45.644Z,63.97
2023-01-29T13:11:29.757Z,63.15
2023-01-29T13:14:01.171Z,63.93
2023-01-29T13:16:38.373Z,65.00
2023-01-29T13:19:14.017Z,64.00
2023-01-29T13:21:43.804Z,64.37
2023-01-29T13:24:16.364Z,64.44
2023-01-29T13:26:46.159Z,65.17
2023-01-29T13:29:24.753Z,65.09
2023-01-29T13:31:53.648Z,65.09
2023-01-29T13:34:24.868Z,65.77
2023-01-29T13:36:57.400Z,66.00
2023-01-29T13:39:31.808Z,65.24
2023-01-29T13:42:00.711Z,66.43
2023-01-29T13:44:40.565Z,66.70
2023-01-29T13:47:20.507Z,66.54
2023-01-29T13:50:13.194Z,65.87
2023-01-29T13:52:54.483Z,65.56
2023-01-29T13:55:37.218Z,66.31
2023-01-29T13:58:05.662Z,66.42
2023-01-29T14:00:35.017Z,66.75
2023-01-29T14:03:01.358Z,66.27
2023-01-29T14:05:30.868Z,66.84
2023-01-29T14:08:01.903Z,67.54
2023-01-29T14:10:33.747Z,67.98
2023-01-29T14:13:03.153Z,67.48
2023-01-29T14:15:35.161Z,67.73
2023-01-29T14:18:10.818Z,67.88
2023-01-29T14:20:48.581Z,67.89
2023-01-29T14:23:41.232Z,68.21
2023-01-29T14:26:38.972Z,68.17
2023-01-29T14:29:25.502Z,68.00
2023-01-29T14:32:19.642Z,68.30
2023-01-29T14:34:50.287Z,68.83
2023-01-29T14:37:16.764Z,67.94
2023-01-29T14:39:45.522Z,67.73
2023-01-29T14:42:25.789Z,67.52
2023-01-29T14:44:55.311Z,67.83
2023-01-29T14:47:41.727Z,67.58
2023-01-29T14:50:31.734Z,67.76
2023-01-29T14:53:19.892Z,68.04
2023-01-29T14:55:55.859Z,68.31
2023-01-29T14:58:39.246Z,67.98
2023-01-29T15:01:28.552Z,68.52
2023-01-29T15:04:19.272Z,68.93
2023-01-29T15:07:05.825Z,69.13
2023-01-29T15:09:45.641Z,68.69
2023-01-29T15:12:46.102Z,69.30
2023-01-29T15:15:31.909Z,68.70
2023-01-29T15:18:16.167Z,69.24
2023-01-29T15:20:43.920Z,69.58
2023-01-29T15:23:28.613Z,69.65
2023-01-29T15:25:59.651Z,70.38
2023-01-29T15:28:31.545Z,69.92
2023-01-29T15:31:01.971Z,69.49
2023-01-29T15:33:28.966Z,69.72
2023-01-29T15:36:07.361Z,69.87
2023-01-29T15:38:36.893Z,69.50
2023-01-29T15:41:21.310Z,69.65
2023-01-29T15:43:50.567Z,69.71
2023-01-29T15:46:25.122Z,69.79
2023-01-29T15:48:54.284Z,69.98
2023-01-29T15:51:23.982Z,70.19
2023-01-29T15:53:57.925Z,69.93
2023-01-29T15:56:29.225Z,70.13
2023-01-29T15:58:58.807Z,69.84
2023-01-29T16:01:29.161Z,70.19
2023-01-29T16:04:01.063Z,69.96
2023-01-29T16:06:30.146Z,70.17
2023-01-29T16:08:56.722Z,70.22
2023-01-29T16:11:23.339Z,70.55
2023-01-29T16:13:51.556Z,70.28
2023-01-29T16:16:25.094Z,70.44
2023-01-29T16:19:00.133Z,70.94
2023-01-29T16:21:30.152Z,71.04
2023-01-29T16:24:03.048Z,70.86
2023-01-29T16:26:34.568Z,70.99
2023-01-29T16:29:11.089Z,71.13
2023-01-29T16:31:39.110Z,71.30
2023-01-29T16:34:09.380Z,71.21
2023-01-29T16:36:36.140Z,71.42
2023-01-29T16:39:06.585Z,71.35
2023-01-29T16:41:36.262Z,71.36
2023-01-29T16:44:16.223Z,70.74
2023-01-29T16:46:47.749Z,71.50
2023-01-29T16:49:37.327Z,71.86
2023-01-29T16:52:22.744Z,71.90
2023-01-29T16:54:50.143Z,71.30
2023-01-29T16:57:21.556Z,71.52
2023-01-29T16:59:48.707Z,71.36
2023-01-29T17:02:23.077Z,71.30
2023-01-29T17:04:52.543Z,71.71
2023-01-29T17:07:21.899Z,71.58
2023-01-29T17:09:53.716Z,71.91
2023-01-29T17:12:23.966Z,71.83
2023-01-29T17:14:59.502Z,71.41
2023-01-29T17:17:30.285Z,71.86
2023-01-29T17:19:58.118Z,71.92
2023-01-29T17:22:24.614Z,71.98
2023-01-29T17:24:51.568Z,72.20
2023-01-29T17:27:22.348Z,71.76
2023-01-29T17:29:52.613Z,72.36
2023-01-29T17:32:19.178Z,71.79
2023-01-29T17:34:46.906Z,71.11
2023-01-29T17:37:15.429Z,71.37
2023-01-29T17:39:43.877Z,70.75
2023-01-29T17:42:15.141Z,70.87
2023-01-29T17:44:42.776Z,71.02
2023-01-29T17:47:15.172Z,71.15
2023-01-29T17:49:42.227Z,71.06
2023-01-29T17:52:09.679Z,71.34
2023-01-29T17:54:36.729Z,70.83
2023-01-29T17:57:03.322Z,70.97
2023-01-29T17:59:32.780Z,70.59
2023-01-29T18:01:59.993Z,70.77
2023-01-29T18:04:26.893Z,70.51
2023-01-29T18:06:54.337Z,70.05
2023-01-29T18:09:21.631Z,69.83
2023-01-29T18:11:49.851Z,69.73
2023-01-29T18:14:16.530Z,69.53
2023-01-29T18:16:44.812Z,69.63
2023-01-29T18:19:23.360Z,68.86
2023-01-29T18:21:50.635Z,69.34
2023-01-29T18:24:17.262Z,69.43
2023-01-29T18:26:43.677Z,70.19
2023-01-29T18:29:10.373Z,69.97
2023-01-29T18:31:36.832Z,69.51
2023-01-29T18:34:03.636Z,69.53
2023-01-29T18:36:30.292Z,69.54
2023-01-29T18:38:57.771Z,70.06
2023-01-29T18:41:24.399Z,69.52
2023-01-29T18:43:52.720Z,69.47
2023-01-29T18:46:19.852Z,69.93
2023-01-29T18:48:46.374Z,69.78
2023-01-29T18:51:12.842Z,69.43
2023-01-29T18:53:39.283Z,69.42
2023-01-29T18:56:06.680Z,68.59
2023-01-29T18:58:35.822Z,69.09
2023-01-29T19:01:09.412Z,69.60
2023-01-29T19:03:36.752Z,69.02
2023-01-29T19:06:05.873Z,68.96
2023-01-29T19:08:32.723Z,68.95
2023-01-29T19:11:02.463Z,68.48
2023-01-29T19:13:30.086Z,69.06
2023-01-29T19:15:56.707Z,68.58
2023-01-29T19:18:25.879Z,68.73
2023-01-29T19:20:53.051Z,68.93
2023-01-29T19:23:20.734Z,68.47
2023-01-29T19:25:47.647Z,69.12
2023-01-29T19:28:14.571Z,69.42
2023-01-29T19:30:41.143Z,69.43
2023-01-29T19:33:09.057Z,69.34
2023-01-29T19:35:35.688Z,69.10
2023-01-29T19:38:02.164Z,69.04
2023-01-29T19:40:28.674Z,69.58
2023-01-29T19:42:56.217Z,69.43
2023-01-29T19:45:48.998Z,68.79
2023-01-29T19:48:13.398Z,68.80
2023-01-29T19:50:39.864Z,69.22
2023-01-29T19:53:06.360Z,68.76
2023-01-29T19:55:32.779Z,68.61
2023-01-29T19:57:59.557Z,68.55
2023-01-29T20:00:26.064Z,68.55
2023-01-29T20:02:52.788Z,68.56
2023-01-29T20:05:20.536Z,68.95
2023-01-29T20:07:47.336Z,68.62
2023-01-29T20:10:17.098Z,68.75
2023-01-29T20:12:44.978Z,68.31
2023-01-29T20:15:12.731Z,68.35
2023-01-29T20:17:39.319Z,67.83
2023-01-29T20:20:06.833Z,67.90
2023-01-29T20:22:33.343Z,67.60
2023-01-29T20:24:59.939Z,67.63
2023-01-29T20:27:26.338Z,67.98
2023-01-29T20:29:52.807Z,67.37
2023-01-29T20:32:19.345Z,67.85
2023-01-29T20:34:49.601Z,68.00
2023-01-29T20:37:16.085Z,67.45
2023-01-29T20:39:42.512Z,67.74
2023-01-29T20:42:08.902Z,68.38
2023-01-29T20:44:35.312Z,67.96
2023-01-29T20:47:02.597Z,67.25
2023-01-29T20:49:29.064Z,67.87
2023-01-29T20:51:55.648Z,68.44
2023-01-29T20:54:22.296Z,68.46
2023-01-29T20:56:49.099Z,67.91
2023-01-29T20:59:15.654Z,68.30
2023-01-29T21:01:43.189Z,68.39
2023-01-29T21:04:09.601Z,68.69
2023-01-29T21:06:36.121Z,68.43
2023-01-29T21:09:02.876Z,68.62
2023-01-29T21:11:31.961Z,68.63
2023-01-29T21:13:58.645Z,68.52
2023-01-29T21:16:28.592Z,68.39
2023-01-29T21:18:58.020Z,69.22
2023-01-29T21:21:26.956Z,69.36
2023-01-29T21:23:54.255Z,68.93
2023-01-29T21:26:23.604Z,69.04
2023-01-29T21:28:50.858Z,68.83
2023-01-29T21:31:17.712Z,69.13
2023-01-29T21:33:44.280Z,69.83
2023-01-29T21:36:11.436Z,70.01
2023-01-29T21:38:38.075Z,69.43
2023-01-29T21:41:09.518Z,70.16
2023-01-29T21:43:36.717Z,70.10
2023-01-29T21:46:11.362Z,69.83
2023-01-29T21:48:39.315Z,69.29
2023-01-29T21:51:06.074Z,69.89
2023-01-29T21:53:32.806Z,70.24
2023-01-29T21:56:03.711Z,69.92
2023-01-29T21:58:30.871Z,69.56
2023-01-29T22:00:57.325Z,70.03
2023-01-29T22:03:46.736Z,69.30
2023-01-29T22:06:13.541Z,68.97
2023-01-29T22:08:39.933Z,68.97
2023-01-29T22:11:07.454Z,69.35
2023-01-29T22:13:34.383Z,68.49
2023-01-29T22:16:00.995Z,68.76
2023-01-29T22:18:27.629Z,68.79
2023-01-29T22:20:57.880Z,68.43
2023-01-29T22:23:24.682Z,68.35
2023-01-29T22:25:51.067Z,68.84
2023-01-29T22:28:18.177Z,68.44
2023-01-29T22:30:45.430Z,69.00
2023-01-29T22:33:12.297Z,69.19
2023-01-29T22:35:38.816Z,68.35
2023-01-29T22:38:05.300Z,68.42
2023-01-29T22:40:31.745Z,68.26
2023-01-29T22:42:58.145Z,68.37
2023-01-29T22:45:24.513Z,67.86
2023-01-29T22:47:50.928Z,67.95
2023-01-29T22:50:17.717Z,67.30
2023-01-29T22:52:53.369Z,67.21
2023-01-29T22:55:19.946Z,67.35
2023-01-29T22:57:49.697Z,66.96
2023-01-29T23:00:17.036Z,67.33
2023-01-29T23:02:43.707Z,67.42
2023-01-29T23:05:10.127Z,67.38
2023-01-29T23:07:36.545Z,68.07
2023-01-29T23:10:03.519Z,68.29
2023-01-29T23:12:29.925Z,67.88
2023-01-29T23:14:56.355Z,67.94
2023-01-29T23:17:22.767Z,67.32
2023-01-29T23:19:49.169Z,67.91
2023-01-29T23:22:15.580Z,68.67
2023-01-29T23:24:42.041Z,68.81
2023-01-29T23:27:15.319Z,68.69
2023-01-29T23:29:48.626Z,67.79
2023-01-29T23:32:17.660Z,67.74
2023-01-29T23:34:44.164Z,67.31
2023-01-29T23:37:10.849Z,67.11
2023-01-29T23:39:37.233Z,67.95
2023-01-29T23:42:04.055Z,67.70
2023-01-29T23:44:30.614Z,68.13
2023-01-29T23:46:58.162Z,68.33
2023-01-29T23:49:24.702Z,68.62
2023-01-29T23:51:51.356Z,68.88
2023-01-29T23:54:18.202Z,69.16
2023-01-29T23:56:44.762Z,69.41
2023-01-29T23:59:11.262Z,69.62
